Time;durP1;ratioP1;P1;durP2;ratioP2;P2;SDS_P1;SDS_P2;PMS_P1;PMS_P2;Temp;Humidity;BMP_temperature;BMP_pressure;BME280_temperature;BME280_humidity;BME280_pressure;Samples;Min_cycle;Max_cycle;Signal;HPM_P1;HPM_P2
2023/07/07 00:00:00;;;;;;;;;;;;;;;22.30;100.00;99476.77;108696;1250;69167;-59
2023/07/07 00:02:28;;;;;;;;;;;;;;;22.28;100.00;99477.38;108702;1253;72413;-59
2023/07/07 00:04:55;;;;;;;5.10;3.60;;;;;;;22.25;100.00;99471.73;108644;1251;61384;-59
2023/07/07 00:07:23;;;;;;;4.00;3.60;;;;;;;22.23;100.00;99468.71;108583;1251;59681;-59
2023/07/07 00:09:51;;;;;;;4.90;3.90;;;;;;;22.15;100.00;99463.89;108525;1251;74148;-59
2023/07/07 00:12:19;;;;;;;4.00;3.70;;;;;;;22.15;100.00;99463.55;108624;1251;69172;-59
2023/07/07 00:14:46;;;;;;;3.90;3.50;;;;;;;22.15;100.00;99469.95;108652;1252;72349;-59
2023/07/07 00:17:16;;;;;;;4.00;3.40;;;;;;;22.14;100.00;99475.75;108659;1251;61767;-59
2023/07/07 00:19:44;;;;;;;5.60;3.60;;;;;;;22.16;100.00;99473.45;108721;1251;59648;-61
2023/07/07 00:22:12;;;;;;;3.80;3.50;;;;;;;22.15;100.00;99471.89;108666;1251;73621;-59
2023/07/07 00:24:39;;;;;;;;;;;;;;;22.16;100.00;99472.96;108632;1251;68158;-59
2023/07/07 00:27:07;;;;;;;4.50;3.20;;;;;;;22.13;100.00;99480.86;108649;1251;72359;-59
2023/07/07 00:29:35;;;;;;;3.00;2.70;;;;;;;22.08;100.00;99480.15;108616;1251;60342;-59
2023/07/07 00:32:02;;;;;;;3.50;3.20;;;;;;;22.06;100.00;99483.70;108577;1251;59908;-59
2023/07/07 00:34:30;;;;;;;;;;;;;;;22.06;100.00;99494.23;108537;1251;74649;-59
2023/07/07 00:36:57;;;;;;;2.80;2.60;;;;;;;22.05;100.00;99497.86;108527;1251;69492;-59
2023/07/07 00:39:26;;;;;;;2.90;2.70;;;;;;;22.02;100.00;99506.33;108623;1251;72227;-59
2023/07/07 00:41:53;;;;;;;3.10;2.90;;;;;;;22.10;100.00;99518.86;108687;1251;61938;-59
2023/07/07 00:44:24;;;;;;;3.30;3.00;;;;;;;22.16;100.00;99531.45;108660;1251;60048;-60
2023/07/07 00:46:52;;;;;;;2.90;2.60;;;;;;;22.16;100.00;99535.73;108562;1251;73625;-59
2023/07/07 00:49:20;;;;;;;2.70;2.50;;;;;;;22.16;100.00;99534.16;108287;1251;70049;-59
2023/07/07 00:51:56;;;;;;;3.70;3.30;;;;;;;22.17;100.00;99539.80;108544;1251;72377;-59
2023/07/07 00:54:26;;;;;;;4.20;2.70;;;;;;;22.17;100.00;99546.58;108563;1250;62768;-59
2023/07/07 00:56:54;;;;;;;3.80;2.70;;;;;;;22.17;100.00;99561.92;108270;1251;59673;-59
2023/07/07 00:59:32;;;;;;;3.30;2.60;;;;;;;22.16;100.00;99577.55;108543;1251;74456;-60
2023/07/07 01:02:02;;;;;;;3.90;3.00;;;;;;;22.12;100.00;99584.13;108594;1250;69160;-58
2023/07/07 01:04:30;;;;;;;2.90;2.70;;;;;;;22.09;100.00;99590.80;108570;1251;72328;-58
2023/07/07 01:07:05;;;;;;;3.20;3.00;;;;;;;22.07;100.00;99594.98;108572;1251;60494;-59
2023/07/07 01:09:33;;;;;;;3.50;2.60;;;;;;;22.06;100.00;99607.92;108601;1251;58699;-59
2023/07/07 01:12:01;;;;;;;3.00;2.70;;;;;;;22.05;100.00;99619.58;108552;1251;73655;-59
2023/07/07 01:14:29;;;;;;;5.60;2.80;;;;;;;22.03;100.00;99628.68;108625;1251;69099;-59
2023/07/07 01:17:30;;;;;;;4.70;2.90;;;;;;;22.03;100.00;99625.33;108399;1251;72280;-59
2023/07/07 01:20:19;;;;;;;5.30;2.90;;;;;;;21.99;100.00;99621.40;108560;1250;61610;-58
2023/07/07 01:23:21;;;;;;;4.40;2.60;;;;;;;21.96;100.00;99605.55;108691;1250;59649;-58
2023/07/07 01:26:14;;;;;;;7.50;3.00;;;;;;;21.94;100.00;99577.79;108654;1250;74041;-58
2023/07/07 01:28:48;;;;;;;2.90;2.70;;;;;;;21.88;100.00;99552.94;108656;1251;69130;-58
2023/07/07 01:31:19;;;;;;;3.20;2.90;;;;;;;21.85;100.00;99554.30;108644;1251;72327;-58
2023/07/07 01:33:47;;;;;;;3.10;2.80;;;;;;;21.85;100.00;99555.17;108598;1253;61365;-59
2023/07/07 01:36:15;;;;;;;4.00;3.00;;;;;;;21.87;100.00;99553.06;108561;1251;59709;-58
2023/07/07 01:38:44;;;;;;;6.70;3.10;;;;;;;21.89;100.00;99538.77;108670;1251;72701;-59
2023/07/07 01:41:20;;;;;;;4.70;3.00;;;;;;;21.90;100.00;99512.84;108700;1250;69207;-58
2023/07/07 01:43:57;;;;;;;3.20;3.00;;;;;;;21.88;100.00;99501.89;107892;1251;376322;-58
2023/07/07 01:47:32;;;;;;;6.20;3.20;;;;;;;21.48;100.00;99496.66;101299;1295;601418;-60
2023/07/07 01:50:12;;;;;;;4.70;3.50;;;;;;;21.74;100.00;99495.88;103578;1266;60817;-59
2023/07/07 01:52:56;;;;;;;3.80;3.60;;;;;;;21.75;100.00;99504.54;103563;1272;60152;-59
2023/07/07 01:55:26;;;;;;;5.00;3.60;;;;;;;21.76;100.00;99524.11;103332;1275;71952;-60
2023/07/07 01:57:56;;;;;;;6.90;3.80;;;;;;;21.77;100.00;99524.34;103339;1273;69393;-59
2023/07/07 02:00:24;;;;;;;4.30;3.80;;;;;;;21.75;100.00;99512.91;103223;1284;264054;-60
2023/07/07 02:02:52;;;;;;;4.30;3.90;;;;;;;21.78;100.00;99514.27;103612;1269;61440;-59
2023/07/07 02:05:20;;;;;;;3.80;3.50;;;;;;;21.84;100.00;99526.59;103920;1266;59717;-59
2023/07/07 02:07:48;;;;;;;4.90;4.10;;;;;;;21.85;100.00;99536.00;106510;1262;72031;-59
2023/07/07 02:10:15;;;;;;;4.90;4.50;;;;;;;21.85;100.00;99533.09;106686;1263;69614;-59
2023/07/07 02:12:43;;;;;;;;;;;;;;;21.87;100.00;99523.05;104046;1268;72333;-59
2023/07/07 02:15:11;;;;;;;7.00;4.60;;;;;;;21.90;100.00;99536.23;103709;1266;61467;-59
2023/07/07 02:17:38;;;;;;;5.10;4.70;;;;;;;21.93;100.00;99537.02;104197;1263;59974;-59
2023/07/07 02:20:08;;;;;;;5.40;4.90;;;;;;;21.96;100.00;99525.96;107167;1263;73291;-61
2023/07/07 02:22:37;;;;;;;5.40;4.90;;;;;;;21.97;100.00;99522.00;106516;1266;69809;-59
2023/07/07 02:25:05;;;;;;;9.90;5.70;;;;;;;22.01;100.00;99520.87;107020;1263;72373;-60
2023/07/07 02:27:33;;;;;;;6.20;5.70;;;;;;;22.04;100.00;99516.50;106968;1263;60566;-59
2023/07/07 02:30:02;;;;;;;6.80;6.20;;;;;;;22.11;100.00;99511.55;107143;1262;59257;-60
2023/07/07 02:32:31;;;;;;;7.30;6.70;;;;;;;22.16;100.00;99518.58;105300;1265;71903;-59
2023/07/07 02:35:00;;;;;;;;;;;;;;;22.20;100.00;99530.09;104035;1269;69948;-59
2023/07/07 02:37:28;;;;;;;8.20;7.60;;;;;;;22.25;100.00;99531.58;103927;1269;72921;-60
2023/07/07 02:39:56;;;;;;;;;;;;;;;22.26;100.00;99528.44;103659;1263;62409;-59
2023/07/07 02:42:24;;;;;;;;;;;;;;;22.26;100.00;99527.06;104070;1263;59854;-59
2023/07/07 02:44:52;;;;;;;10.00;9.10;;;;;;;22.23;100.00;99523.33;104203;1256;73672;-60
2023/07/07 02:47:20;;;;;;;11.30;10.20;;;;;;;22.22;100.00;99512.19;104266;1273;69449;-59
2023/07/07 02:49:48;;;;;;;10.90;10.00;;;;;;;22.22;100.00;99496.83;104114;1262;72756;-59
2023/07/07 02:52:16;;;;;;;11.00;9.90;;;;;;;22.23;100.00;99486.17;104104;1260;61782;-59
2023/07/07 02:54:44;;;;;;;11.80;10.60;;;;;;;22.25;100.00;99485.87;104252;1257;59687;-59
2023/07/07 02:57:12;;;;;;;10.70;9.70;;;;;;;22.24;100.00;99485.92;103959;1264;73233;-59
2023/07/07 02:59:39;;;;;;;11.40;10.30;;;;;;;22.25;100.00;99482.80;104029;1272;68362;-59
2023/07/07 03:02:07;;;;;;;;;;;;;;;22.25;100.00;99474.98;104223;1262;72919;-59
2023/07/07 03:04:35;;;;;;;12.60;10.40;;;;;;;22.23;100.00;99475.33;103984;1263;60552;-60
2023/07/07 03:07:03;;;;;;;11.20;10.20;;;;;;;22.22;100.00;99470.98;104125;1263;59982;-59
2023/07/07 03:09:31;;;;;;;11.00;10.10;;;;;;;22.18;100.00;99467.75;106388;1256;72901;-60
2023/07/07 03:12:00;;;;;;;11.30;10.20;;;;;;;22.19;100.00;99469.30;105632;1262;69768;-59
2023/07/07 03:14:27;;;;;;;;;;;;;;;22.22;100.00;99466.45;104348;1277;72551;-59
2023/07/07 03:16:59;;;;;;;9.70;9.00;;;;;;;22.26;100.00;99464.40;104207;1257;61376;-58
2023/07/07 03:19:32;;;;;;;11.20;9.70;;;;;;;22.27;100.00;99464.38;104136;1256;60081;-59
2023/07/07 03:22:06;;;;;;;10.40;9.30;;;;;;;22.32;100.00;99466.45;104005;1264;73283;-59
2023/07/07 03:24:39;;;;;;;22.00;10.00;;;;;;;22.34;100.00;99468.58;103944;1263;69711;-60
2023/07/07 03:27:14;;;;;;;11.00;10.10;;;;;;;22.37;100.00;99466.54;104294;1267;72789;-60
2023/07/07 03:29:42;;;;;;;;;;;;;;;22.39;100.00;99469.00;104326;1259;61402;-59
2023/07/07 03:32:11;;;;;;;9.50;8.80;;;;;;;22.44;100.00;99478.02;104396;1267;59909;-59
2023/07/07 03:34:42;;;;;;;10.20;9.40;;;;;;;22.49;100.00;99484.30;104247;1269;72863;-60
2023/07/07 03:37:11;;;;;;;10.70;9.70;;;;;;;22.54;100.00;99484.53;104340;1259;69348;-60
2023/07/07 03:39:38;;;;;;;9.70;8.90;;;;;;;22.57;100.00;99492.02;104280;1260;72356;-60
2023/07/07 03:42:08;;;;;;;10.40;9.40;;;;;;;22.61;100.00;99498.90;104229;1261;61432;-60
2023/07/07 03:44:37;;;;;;;9.70;8.80;;;;;;;22.63;100.00;99508.14;104293;1255;60124;-61
2023/07/07 03:47:05;;;;;;;9.00;8.20;;;;;;;22.68;100.00;99515.52;104306;1260;72913;-59
2023/07/07 03:49:33;;;;;;;10.00;9.10;;;;;;;22.72;100.00;99525.55;104614;1254;69569;-60
2023/07/07 03:52:04;;;;;;;11.70;9.30;;;;;;;22.79;100.00;99531.36;104239;1257;73006;-60
2023/07/07 03:54:32;;;;;;;9.70;8.90;;;;;;;22.83;100.00;99543.05;104232;1261;61408;-60
2023/07/07 03:57:00;;;;;;;9.80;8.60;;;;;;;22.86;100.00;99539.76;104344;1259;59827;-61
2023/07/07 03:59:28;;;;;;;9.00;8.30;;;;;;;22.88;100.00;99538.48;104335;1259;72821;-59
2023/07/07 04:01:55;;;;;;;8.70;8.00;;;;;;;22.92;100.00;99538.60;104494;1259;70083;-60
2023/07/07 04:04:24;;;;;;;8.70;8.00;;;;;;;22.96;100.00;99538.11;104443;1261;72208;-60
2023/07/07 04:06:55;;;;;;;8.80;7.90;;;;;;;22.94;100.00;99550.23;104143;1257;61424;-60
2023/07/07 04:09:23;;;;;;;8.20;7.40;;;;;;;22.96;100.00;99558.29;105652;1259;59679;-60
2023/07/07 04:11:50;;;;;;;;;;;;;;;22.99;100.00;99549.05;107282;1256;73108;-60
2023/07/07 04:14:18;;;;;;;;;;;;;;;23.01;100.00;99545.49;104690;1259;69155;-61
2023/07/07 04:16:46;;;;;;;8.40;7.70;;;;;;;23.02;100.00;99542.88;104615;1259;72354;-60
2023/07/07 04:19:14;;;;;;;8.40;7.30;;;;;;;23.01;100.00;99540.23;104252;1262;61889;-60
2023/07/07 04:21:41;;;;;;;10.20;9.10;;;;;;;22.99;100.00;99541.38;104386;1259;60746;-60
2023/07/07 04:24:09;;;;;;;8.90;8.20;;;;;;;22.96;100.00;99533.48;104338;1260;73334;-61
2023/07/07 04:26:38;;;;;;;9.10;8.40;;;;;;;22.93;100.00;99540.67;104269;1256;70255;-60
2023/07/07 04:29:06;;;;;;;10.00;8.10;;;;;;;22.91;100.00;99535.84;104313;1272;72487;-60
2023/07/07 04:31:33;;;;;;;8.70;8.10;;;;;;;22.88;100.00;99532.17;104511;1259;62392;-61
2023/07/07 04:34:01;;;;;;;12.80;8.90;;;;;;;22.93;100.00;99532.93;104443;1257;60766;-60
2023/07/07 04:36:29;;;;;;;9.20;8.40;;;;;;;22.98;100.00;99532.89;104382;1264;72661;-60
2023/07/07 04:38:58;;;;;;;10.40;8.50;;;;;;;23.00;100.00;99530.70;104244;1275;69056;-60
2023/07/07 04:41:26;;;;;;;8.60;7.80;;;;;;;23.02;100.00;99527.82;104282;1259;72635;-59
2023/07/07 04:43:56;;;;;;;8.60;7.80;;;;;;;23.05;100.00;99516.47;104370;1267;60909;-60
2023/07/07 04:46:28;;;;;;;9.40;8.40;;;;;;;23.08;100.00;99505.84;104310;1255;59803;-60
2023/07/07 04:48:57;;;;;;;9.00;8.10;;;;;;;23.09;100.00;99505.55;104412;1260;73660;-60
2023/07/07 04:51:25;;;;;;;9.20;8.30;;;;;;;23.11;100.00;99506.38;104448;1260;69529;-60
2023/07/07 04:53:52;;;;;;;;;;;;;;;23.15;100.00;99518.23;104315;1259;73344;-60
2023/07/07 04:56:21;;;;;;;8.70;7.90;;;;;;;23.15;100.00;99520.59;104334;1254;60549;-60
2023/07/07 04:58:51;;;;;;;8.60;7.90;;;;;;;23.15;100.00;99512.70;104190;1262;59764;-59
2023/07/07 05:01:21;;;;;;;10.20;9.30;;;;;;;23.14;100.00;99506.68;104218;1266;73569;-60
2023/07/07 05:03:54;;;;;;;9.60;8.70;;;;;;;23.14;100.00;99510.13;104433;1259;69344;-61
2023/07/07 05:06:22;;;;;;;9.20;8.50;;;;;;;23.12;100.00;99511.55;104291;1256;72500;-61
2023/07/07 05:08:50;;;;;;;9.10;8.20;;;;;;;23.16;100.00;99507.63;104731;1257;62417;-60
2023/07/07 05:11:19;;;;;;;;;;;;;;;23.16;100.00;99509.58;104298;1253;59887;-60
2023/07/07 05:13:48;;;;;;;8.40;7.60;;;;;;;23.22;100.00;99516.14;104404;1267;73694;-60
2023/07/07 05:16:18;;;;;;;8.20;7.50;;;;;;;23.27;100.00;99523.17;104498;1265;69526;-60
2023/07/07 05:18:46;;;;;;;10.10;7.50;;;;;;;23.36;100.00;99521.86;104420;1269;73354;-60
2023/07/07 05:21:14;;;;;;;7.90;7.20;;;;;;;23.47;100.00;99520.48;104422;1270;61524;-60
2023/07/07 05:23:42;;;;;;;8.40;7.70;;;;;;;23.56;100.00;99515.64;104429;1259;59756;-60
2023/07/07 05:26:10;;;;;;;;;;;;;;;23.64;100.00;99511.09;104322;1266;72721;-60
2023/07/07 05:28:38;;;;;;;8.00;7.40;;;;;;;23.72;100.00;99514.38;104336;1269;69019;-60
2023/07/07 05:31:06;;;;;;;;;;;;;;;23.78;100.00;99514.19;104317;1260;72232;-59
2023/07/07 05:33:36;;;;;;;7.50;6.70;;;;;;;23.83;100.00;99513.48;104226;1256;61801;-60
2023/07/07 05:36:04;;;;;;;7.80;7.30;;;;;;;23.88;100.00;99514.83;104341;1268;59682;-59
2023/07/07 05:38:32;;;;;;;6.80;6.30;;;;;;;23.96;100.00;99519.05;104284;1259;72899;-59
2023/07/07 05:41:00;;;;;;;7.70;7.00;;;;;;;24.07;100.00;99520.00;104422;1270;69602;-59
2023/07/07 05:43:28;;;;;;;6.80;6.30;;;;;;;24.18;100.00;99516.22;104338;1267;73371;-59
2023/07/07 05:45:56;;;;;;;7.00;6.40;;;;;;;24.29;100.00;99517.70;104444;1259;61417;-57
2023/07/07 05:48:25;;;;;;;7.00;6.40;;;;;;;24.32;100.00;99512.48;104304;1276;60297;-57
2023/07/07 05:50:58;;;;;;;6.70;6.20;;;;;;;24.36;100.00;99513.39;104482;1263;72903;-57
2023/07/07 05:53:27;;;;;;;10.50;6.80;;;;;;;24.38;100.00;99515.31;104440;1260;69170;-56
2023/07/07 05:56:08;;;;;;;7.60;6.90;;;;;;;24.45;100.00;99507.60;104438;1269;72913;-56
2023/07/07 05:58:36;;;;;;;9.80;8.90;;;;;;;24.51;100.00;99512.23;104239;1259;61395;-57
2023/07/07 06:01:04;;;;;;;11.40;10.40;;;;;;;24.58;100.00;99510.56;104541;1263;60048;-56
2023/07/07 06:03:32;;;;;;;14.50;11.80;;;;;;;24.62;100.00;99507.06;104287;1274;72804;-57
2023/07/07 06:06:00;;;;;;;14.40;12.70;;;;;;;24.68;100.00;99508.61;104283;1263;69145;-55
2023/07/07 06:08:31;;;;;;;14.80;13.30;;;;;;;24.75;100.00;99509.58;104264;1259;72426;-56
2023/07/07 06:10:59;;;;;;;;;;;;;;;24.83;100.00;99516.52;107957;1254;60832;-57
2023/07/07 06:13:28;;;;;;;14.60;13.40;;;;;;;24.93;100.00;99518.77;106831;1255;60481;-56
2023/07/07 06:15:56;;;;;;;15.00;13.80;;;;;;;24.96;100.00;99516.61;104526;1259;72816;-57
2023/07/07 06:18:24;;;;;;;;;;;;;;;25.02;100.00;99515.83;104779;1258;68534;-58
2023/07/07 06:20:54;;;;;;;15.30;14.10;;;;;;;25.06;100.00;99512.02;104408;1272;72439;-57
2023/07/07 06:23:21;;;;;;;16.90;15.10;;;;;;;25.09;100.00;99510.65;104380;1254;61554;-59
2023/07/07 06:25:49;;;;;;;;;;;;;;;25.14;100.00;99510.80;104466;1257;60543;-59
2023/07/07 06:28:17;;;;;;;16.30;15.00;;;;;;;25.19;100.00;99511.19;104332;1266;73574;-58
2023/07/07 06:30:49;;;;;;;16.00;14.50;;;;;;;25.15;100.00;99505.85;104425;1266;69225;-57
2023/07/07 06:33:17;;;;;;;15.20;14.00;;;;;;;25.13;100.00;99506.30;104504;1258;72348;-59
2023/07/07 06:35:48;;;;;;;15.40;14.20;;;;;;;25.11;100.00;99503.26;104392;1254;61441;-58
2023/07/07 06:38:16;;;;;;;15.90;14.60;;;;;;;25.11;100.00;99506.12;104326;1254;60516;-59
2023/07/07 06:40:45;;;;;;;15.60;14.50;;;;;;;25.10;100.00;99506.48;104255;1254;74515;-58
2023/07/07 06:43:17;;;;;;;17.40;15.40;;;;;;;25.10;100.00;99507.02;104370;1263;69239;-58
2023/07/07 06:45:53;;;;;;;18.00;16.50;;;;;;;25.15;100.00;99510.93;104509;1266;72511;-58
2023/07/07 06:48:21;;;;;;;17.40;16.00;;;;;;;25.12;100.00;99512.61;104554;1257;60998;-58
2023/07/07 06:50:49;;;;;;;;;;;;;;;25.09;100.00;99511.55;104394;1251;60584;-59
2023/07/07 06:53:17;;;;;;;17.90;16.50;;;;;;;25.05;100.00;99513.58;108534;1253;74113;-56
2023/07/07 06:55:44;;;;;;;;;;;;;;;25.07;100.00;99514.74;108511;1254;69212;-57
2023/07/07 06:58:12;;;;;;;;;;;;;;;25.12;100.00;99516.39;108547;1251;71458;-56
2023/07/07 07:00:41;;;;;;;18.00;16.50;;;;;;;25.17;100.00;99518.17;108535;1251;61370;-56
2023/07/07 07:03:09;;;;;;;18.30;16.90;;;;;;;25.26;100.00;99520.33;108191;1251;59079;-58
2023/07/07 07:05:37;;;;;;;;;;;;;;;25.37;100.00;99518.98;108489;1251;72856;-58
2023/07/07 07:08:05;;;;;;;17.70;16.00;;;;;;;25.45;100.00;99516.14;108500;1251;69437;-58
2023/07/07 07:10:32;;;;;;;;;;;;;;;25.56;100.00;99516.76;108486;1254;73363;-57
2023/07/07 07:13:00;;;;;;;;;;;;;;;25.68;100.00;99523.88;108385;1253;61367;-58
2023/07/07 07:15:28;;;;;;;18.00;16.60;;;;;;;25.80;100.00;99525.98;108414;1251;59461;-57
2023/07/07 07:17:55;;;;;;;;;;;;;;;25.87;100.00;99526.39;108343;1254;73607;-58
2023/07/07 07:20:23;;;;;;;19.30;16.80;;;;;;;25.87;100.00;99525.25;108425;1251;70353;-57
2023/07/07 07:22:51;;;;;;;18.70;17.00;;;;;;;25.85;100.00;99527.84;108486;1251;73143;-57
2023/07/07 07:25:19;;;;;;;16.00;14.60;;;;;;;25.90;100.00;99533.00;108523;1254;61421;-57
2023/07/07 07:27:46;;;;;;;15.30;13.80;;;;;;;26.01;100.00;99532.55;108469;1251;59672;-60
2023/07/07 07:30:15;;;;;;;15.10;13.70;;;;;;;26.16;100.00;99529.86;108471;1251;74587;-57
2023/07/07 07:32:43;;;;;;;14.10;12.90;;;;;;;26.26;100.00;99527.33;108525;1251;69089;-57
2023/07/07 07:35:11;;;;;;;12.40;11.40;;;;;;;26.31;100.00;99525.37;108572;1251;72478;-57
2023/07/07 07:37:39;;;;;;;10.70;10.00;;;;;;;26.38;100.00;99534.55;108510;1251;61812;-60
2023/07/07 07:40:07;;;;;;;10.80;9.20;;;;;;;26.44;100.00;99538.45;108577;1251;59727;-58
2023/07/07 07:42:35;;;;;;;8.30;7.70;;;;;;;26.48;100.00;99541.27;108554;1254;74071;-59
2023/07/07 07:45:03;;;;;;;8.20;7.50;;;;;;;26.52;100.00;99548.77;108524;1252;69177;-59
2023/07/07 07:47:31;;;;;;;7.40;6.80;;;;;;;26.54;100.00;99550.84;108470;1251;72711;-60
2023/07/07 07:49:58;;;;;;;6.30;5.80;;;;;;;26.58;100.00;99554.71;108535;1253;61765;-59
2023/07/07 07:52:26;;;;;;;6.70;5.90;;;;;;;26.61;100.00;99553.41;108520;1251;59713;-59
2023/07/07 07:54:54;;;;;;;7.00;6.50;;;;;;;26.64;100.00;99557.13;108482;1251;74299;-59
2023/07/07 07:57:21;;;;;;;;;;;;;;;26.71;100.00;99565.88;108517;1251;70186;-58
2023/07/07 07:59:49;;;;;;;;;;;;;;;26.72;100.00;99564.15;108543;1251;72358;-60
2023/07/07 08:02:17;;;;;;;9.20;5.90;;;;;;;26.70;100.00;99567.27;108589;1252;62387;-60
2023/07/07 08:04:44;;;;;;;;;;;;;;;26.64;100.00;99571.65;108580;1251;60745;-59
2023/07/07 08:07:12;;;;;;;;;;;;;;;26.61;100.00;99572.35;108535;1251;73100;-60
2023/07/07 08:09:40;;;;;;;5.90;5.40;;;;;;;26.55;100.00;99575.55;108527;1251;70296;-60
2023/07/07 08:12:08;;;;;;;6.30;5.80;;;;;;;26.54;100.00;99583.92;108379;1251;72532;-59
2023/07/07 08:14:36;;;;;;;6.20;5.60;;;;;;;26.55;100.00;99590.09;108209;1254;61482;-59
2023/07/07 08:17:06;;;;;;;6.50;5.90;;;;;;;26.58;100.00;99583.09;108355;1251;60147;-60
2023/07/07 08:19:36;;;;;;;7.00;6.20;;;;;;;26.59;100.00;99585.14;108426;1251;74115;-60
2023/07/07 08:22:05;;;;;;;6.20;5.80;;;;;;;26.65;100.00;99584.02;108438;1251;69247;-60
2023/07/07 08:24:38;;;;;;;7.80;6.20;;;;;;;26.68;100.00;99583.30;108492;1251;72145;-60
2023/07/07 08:30:25;;;;;;;6.70;6.20;;;;;;;26.73;100.00;99592.27;101875;1293;600625;-63
2023/07/07 08:32:54;;;;;;;6.90;5.80;;;;;;;26.79;100.00;99593.19;104060;1265;60859;-59
2023/07/07 08:35:22;;;;;;;6.30;5.80;;;;;;;26.80;100.00;99590.66;104067;1264;59648;-59
2023/07/07 08:37:50;;;;;;;6.30;5.70;;;;;;;26.81;100.00;99587.52;104043;1268;72665;-59
2023/07/07 08:40:18;;;;;;;;;;;;;;;26.85;100.00;99581.23;104164;1264;69072;-59
2023/07/07 08:42:46;;;;;;;6.20;5.80;;;;;;;26.89;100.00;99584.73;103826;1269;72637;-59
2023/07/07 08:45:17;;;;;;;7.30;5.60;;;;;;;26.97;100.00;99585.63;103855;1263;159142;-60
2023/07/07 08:47:51;;;;;;;5.80;5.40;;;;;;;27.10;100.00;99583.39;104361;1266;59642;-59
2023/07/07 08:50:40;;;;;;;6.70;5.90;;;;;;;27.21;100.00;99578.89;104116;1261;72482;-60
2023/07/07 08:53:26;;;;;;;6.70;5.70;;;;;;;27.40;100.00;99581.48;104015;1266;69033;-59
2023/07/07 08:56:32;;;;;;;6.40;5.80;;;;;;;27.57;100.00;99574.34;104080;1266;72355;-59
2023/07/07 08:59:25;;;;;;;5.60;5.10;;;;;;;27.69;100.00;99579.64;103896;1266;61601;-59
2023/07/07 09:01:53;;;;;;;5.90;5.40;;;;;;;27.72;100.00;99580.67;104543;1261;60231;-60
2023/07/07 09:04:43;;;;;;;5.80;5.30;;;;;;;27.75;100.00;99582.46;104123;1266;72776;-60
2023/07/07 09:07:55;;;;;;;5.60;5.20;;;;;;;27.80;100.00;99579.97;105218;1261;69986;-60
2023/07/07 09:11:02;;;;;;;5.90;5.40;;;;;;;27.88;100.00;99579.52;103565;1276;73372;-57
2023/07/07 09:13:32;;;;;;;5.50;5.10;;;;;;;27.90;100.00;99583.11;103321;1278;61841;-59
2023/07/07 09:16:13;;;;;;;5.90;5.40;;;;;;;27.92;100.00;99575.34;104072;1263;59736;-60
2023/07/07 09:18:56;;;;;;;6.00;5.50;;;;;;;27.94;100.00;99570.23;104401;1261;73634;-59
2023/07/07 09:21:33;;;;;;;7.50;4.90;;;;;;;27.92;100.00;99570.03;104071;1268;69406;-59
2023/07/07 09:24:21;;;;;;;7.60;6.10;;;;;;;27.91;100.00;99565.64;103898;1267;72417;-59
2023/07/07 09:26:50;;;;;;;6.10;5.60;;;;;;;27.88;100.00;99560.83;104390;1263;62433;-59
2023/07/07 09:29:27;;;;;;;6.30;5.60;;;;;;;27.89;100.00;99556.40;104102;1267;60050;-59
2023/07/07 09:31:54;;;;;;;5.60;5.10;;;;;;;27.95;100.00;99551.04;104384;1257;72727;-58
2023/07/07 09:34:22;;;;;;;6.40;5.20;;;;;;;28.05;100.00;99541.36;104290;1257;69701;-59
2023/07/07 09:36:53;;;;;;;;;;;;;;;28.13;100.00;99537.54;104034;1264;71601;-63
2023/07/07 09:39:30;;;;;;;5.70;5.20;;;;;;;28.20;100.00;99535.45;104166;1263;60456;-59
2023/07/07 09:42:20;;;;;;;7.50;5.60;;;;;;;28.32;100.00;99529.67;104013;1265;59730;-59
2023/07/07 09:45:22;;;;;;;6.00;5.50;;;;;;;28.48;100.00;99532.70;104072;1263;73254;-58
2023/07/07 09:47:56;;;;;;;5.70;4.40;;;;;;;28.65;100.00;99526.50;104318;1273;69732;-57
2023/07/07 09:50:34;;;;;;;10.10;5.10;;;;;;;28.79;100.00;99528.77;104381;1271;72388;-59
2023/07/07 09:53:05;;;;;;;5.00;4.60;;;;;;;28.93;100.00;99524.85;104572;1263;62328;-58
2023/07/07 09:55:49;;;;;;;4.70;4.30;;;;;;;29.05;100.00;99512.51;103979;1265;59829;-59
2023/07/07 09:58:25;;;;;;;4.90;4.50;;;;;;;29.10;100.00;99507.83;104275;1265;73860;-58
2023/07/07 10:00:55;;;;;;;5.30;4.60;;;;;;;29.17;100.00;99504.91;104145;1258;69587;-59
2023/07/07 10:03:23;;;;;;;5.00;4.60;;;;;;;29.21;100.00;99501.50;104047;1261;71529;-59
2023/07/07 10:05:50;;;;;;;5.70;4.80;;;;;;;29.28;100.00;99501.63;103886;1261;61687;-59
2023/07/07 10:08:18;;;;;;;4.70;4.30;;;;;;;29.37;100.00;99501.48;104161;1264;60023;-59
2023/07/07 10:11:08;;;;;;;;;;;;;;;29.43;100.00;99499.79;103931;1263;72839;-60
2023/07/07 10:13:56;;;;;;;5.20;4.70;;;;;;;29.54;100.00;99495.59;107429;1257;70130;-60
2023/07/07 10:16:30;;;;;;;5.90;5.20;;;;;;;29.52;100.00;99498.73;105706;1265;71474;-59
2023/07/07 10:19:01;;;;;;;5.40;4.90;;;;;;;29.50;100.00;99500.08;104372;1263;61409;-59
2023/07/07 10:21:29;;;;;;;7.30;4.90;;;;;;;29.53;100.00;99496.06;104112;1259;60179;-59
2023/07/07 10:23:57;;;;;;;5.40;5.00;;;;;;;29.57;100.00;99493.44;103943;1268;72871;-58
2023/07/07 10:26:25;;;;;;;6.90;4.80;;;;;;;29.63;100.00;99487.13;104064;1263;69289;-59
2023/07/07 10:28:55;;;;;;;5.60;4.80;;;;;;;29.75;100.00;99479.80;104477;1257;71455;-59
2023/07/07 10:31:23;;;;;;;7.80;4.90;;;;;;;29.85;100.00;99474.16;104401;1251;62332;-59
2023/07/07 10:34:01;;;;;;;5.40;4.90;;;;;;;29.96;100.00;99472.23;104644;1254;59675;-58
2023/07/07 10:36:30;;;;;;;5.20;4.90;;;;;;;30.11;100.00;99463.23;104445;1257;73061;-58
2023/07/07 10:38:59;;;;;;;5.60;4.90;;;;;;;30.22;100.00;99453.89;104313;1273;69066;-59
2023/07/07 10:41:27;;;;;;;5.30;4.90;;;;;;;30.35;100.00;99454.61;105234;1254;73414;-60
2023/07/07 10:43:55;;;;;;;5.50;5.10;;;;;;;30.45;100.00;99452.77;104396;1256;61470;-60
2023/07/07 10:46:23;;;;;;;5.10;4.80;;;;;;;30.55;100.00;99452.78;104701;1257;59726;-58
2023/07/07 10:48:52;;;;;;;5.40;5.00;;;;;;;30.56;100.00;99448.90;104565;1258;73207;-60
2023/07/07 10:51:51;;;;;;;5.60;5.10;;;;;;;30.61;100.00;99450.39;104514;1257;70115;-61
2023/07/07 10:54:27;;;;;;;5.10;4.70;;;;;;;30.68;100.00;99447.71;104442;1263;72564;-62
2023/07/07 10:57:35;;;;;;;5.70;5.30;;;;;;;30.71;100.00;99446.90;104650;1256;61602;-58
2023/07/07 11:00:54;;;;;;;5.20;4.70;;;;;;;30.75;100.00;99443.54;104025;1251;60705;-59
2023/07/07 11:03:25;;;;;;;5.80;5.40;;;;;;;30.76;100.00;99443.95;104309;1256;72888;-58
2023/07/07 11:06:09;;;;;;;5.70;4.90;;;;;;;30.76;100.00;99445.71;104686;1256;69063;-58
2023/07/07 11:09:03;;;;;;;5.80;4.80;;;;;;;30.87;100.00;99446.11;104461;1268;72329;-58
2023/07/07 11:11:40;;;;;;;4.80;4.50;;;;;;;31.03;100.00;99444.90;104892;1257;61489;-58
2023/07/07 11:14:14;;;;;;;5.10;4.70;;;;;;;31.14;100.00;99448.48;108477;1251;60681;-58
2023/07/07 11:16:52;;;;;;;4.50;4.20;;;;;;;31.18;100.00;99446.48;106129;1256;73754;-59
2023/07/07 11:19:31;;;;;;;4.30;4.00;;;;;;;31.23;100.00;99449.34;104574;1258;69183;-59
2023/07/07 11:22:25;;;;;;;5.20;4.80;;;;;;;31.21;100.00;99449.95;104912;1257;73291;-59
2023/07/07 11:25:00;;;;;;;5.10;4.70;;;;;;;31.03;100.00;99457.85;105224;1257;59770;-59
2023/07/07 11:27:34;;;;;;;4.80;4.30;;;;;;;30.88;100.00;99461.86;105055;1251;59743;-59
2023/07/07 11:30:10;;;;;;;5.10;4.70;;;;;;;30.78;100.00;99467.17;105011;1251;73272;-59
2023/07/07 11:33:11;;;;;;;5.00;4.60;;;;;;;30.70;100.00;99469.84;104311;1254;69581;-59
2023/07/07 11:36:03;;;;;;;4.80;4.40;;;;;;;30.60;100.00;99472.18;104242;1256;72499;-59
2023/07/07 11:38:33;;;;;;;5.00;4.50;;;;;;;30.44;100.00;99471.95;104439;1258;59806;-58
2023/07/07 11:41:36;;;;;;;4.90;4.50;;;;;;;30.31;100.00;99471.56;104503;1257;59985;-59
2023/07/07 11:44:19;;;;;;;4.60;4.20;;;;;;;30.11;100.00;99470.23;104805;1257;72995;-59
2023/07/07 11:47:15;;;;;;;5.00;4.50;;;;;;;29.97;100.00;99472.58;104936;1256;69807;-58